LVKFQ SULS-SEGU
Flight info
| Callsign | LVKFQ |
|---|---|
| Flight time | N/A |
| Altitude | 36000 |
| Route | LUCIO DCT CRR UL417 PAR UW8 ERE UT672 DADMI UT677 SAL/N0464F380 DCT TOKOL DCT EQU DCT KOLKA DCT UROLO/N0459F400 DCT IBARE DCT POY DCT EVRED EVRED2 |
| Aircraft | CL60/M-SBDE1E2E3FGHIJ4J5J7M3RWXYZ/LB1V1D1 |
Departure
| Time | N/A |
|---|---|
| Airport | Capitan Corbeta CA Curbelo International Airport (SULS) |
Arrival
| Time | 2026-04-18 11:37 |
|---|---|
| Airport | José Joaquín de Olmedo International Airport (SEGU) |
| Time | Latitude | Longitude | Altitude | Speed | Heading |
|---|---|---|---|---|---|
| 2026-04-18 10:53 | -4.14970 | -79.02042 | 36261 ft | 449 kts | 332° |
| 2026-04-18 10:54 | -4.12323 | -79.03535 | 36259 ft | 449 kts | 332° |
| 2026-04-18 10:54 | -4.06895 | -79.06596 | 36259 ft | 448 kts | 332° |
| 2026-04-18 10:55 | -4.01649 | -79.09553 | 36271 ft | 447 kts | 332° |
| 2026-04-18 10:55 | -3.96205 | -79.12620 | 36274 ft | 448 kts | 332° |
| 2026-04-18 10:56 | -3.91390 | -79.15334 | 36332 ft | 449 kts | 332° |
| 2026-04-18 10:57 | -3.81826 | -79.20721 | 36343 ft | 450 kts | 332° |
| 2026-04-18 10:58 | -3.70496 | -79.27103 | 36357 ft | 449 kts | 332° |
| 2026-04-18 10:58 | -3.65835 | -79.29727 | 36353 ft | 449 kts | 332° |
| 2026-04-18 10:59 | -3.65589 | -79.29866 | 36352 ft | 449 kts | 332° |
| 2026-04-18 11:00 | -3.60887 | -79.32513 | 36376 ft | 450 kts | 332° |
| 2026-04-18 11:01 | -3.57137 | -79.34624 | 36392 ft | 450 kts | 332° |
| 2026-04-18 11:01 | -3.51703 | -79.37682 | 35840 ft | 450 kts | 332° |
| 2026-04-18 11:02 | -3.46348 | -79.40698 | 34759 ft | 440 kts | 332° |
| 2026-04-18 11:02 | -3.43696 | -79.42191 | 34202 ft | 435 kts | 332° |
| 2026-04-18 11:02 | -3.41083 | -79.43661 | 33609 ft | 432 kts | 332° |
| 2026-04-18 11:02 | -3.38481 | -79.45126 | 33047 ft | 427 kts | 332° |
| 2026-04-18 11:03 | -3.35893 | -79.46581 | 32470 ft | 424 kts | 332° |
| 2026-04-18 11:03 | -3.33292 | -79.48045 | 31877 ft | 422 kts | 332° |
| 2026-04-18 11:03 | -3.30776 | -79.49460 | 31324 ft | 419 kts | 331° |
| 2026-04-18 11:03 | -3.28208 | -79.50903 | 30747 ft | 423 kts | 331° |
| 2026-04-18 11:04 | -3.25649 | -79.52341 | 30182 ft | 427 kts | 331° |
| 2026-04-18 11:04 | -3.23019 | -79.53820 | 29529 ft | 432 kts | 331° |
| 2026-04-18 11:04 | -3.20406 | -79.55290 | 28980 ft | 433 kts | 331° |
| 2026-04-18 11:04 | -3.17762 | -79.56775 | 28387 ft | 437 kts | 331° |
| 2026-04-18 11:05 | -3.15103 | -79.58270 | 27741 ft | 439 kts | 331° |
| 2026-04-18 11:05 | -3.12410 | -79.59784 | 27159 ft | 438 kts | 330° |
| 2026-04-18 11:05 | -3.09751 | -79.61278 | 26531 ft | 440 kts | 330° |
| 2026-04-18 11:05 | -3.07369 | -79.62617 | 26027 ft | 438 kts | 330° |
| 2026-04-18 11:06 | -3.04521 | -79.64217 | 25348 ft | 441 kts | 330° |
| 2026-04-18 11:06 | -3.01837 | -79.65726 | 24810 ft | 439 kts | 330° |
| 2026-04-18 11:06 | -2.99122 | -79.67252 | 24083 ft | 441 kts | 330° |
| 2026-04-18 11:06 | -2.96437 | -79.68760 | 23474 ft | 439 kts | 329° |
| 2026-04-18 11:07 | -2.93778 | -79.70254 | 22887 ft | 439 kts | 329° |
| 2026-04-18 11:07 | -2.91068 | -79.71776 | 22286 ft | 441 kts | 329° |
| 2026-04-18 11:07 | -2.88394 | -79.73278 | 21686 ft | 441 kts | 329° |
| 2026-04-18 11:07 | -2.85718 | -79.74781 | 21066 ft | 444 kts | 329° |
| 2026-04-18 11:08 | -2.83011 | -79.76302 | 20445 ft | 445 kts | 329° |
| 2026-04-18 11:08 | -2.80219 | -79.77703 | 19832 ft | 447 kts | 338° |
| 2026-04-18 11:08 | -2.77179 | -79.78451 | 19301 ft | 450 kts | 350° |
| 2026-04-18 11:08 | -2.74024 | -79.78855 | 18724 ft | 454 kts | 352° |
| 2026-04-18 11:09 | -2.70842 | -79.79258 | 18046 ft | 452 kts | 352° |
| 2026-04-18 11:09 | -2.67779 | -79.79647 | 17471 ft | 437 kts | 352° |
| 2026-04-18 11:09 | -2.64743 | -79.80033 | 16903 ft | 425 kts | 352° |
| 2026-04-18 11:09 | -2.61872 | -79.80399 | 16300 ft | 414 kts | 352° |
| 2026-04-18 11:10 | -2.58974 | -79.80768 | 15741 ft | 410 kts | 352° |
| 2026-04-18 11:10 | -2.56135 | -79.81130 | 15301 ft | 407 kts | 352° |
| 2026-04-18 11:10 | -2.53255 | -79.81497 | 14670 ft | 405 kts | 352° |
| 2026-04-18 11:10 | -2.50483 | -79.81850 | 14126 ft | 393 kts | 352° |
| 2026-04-18 11:11 | -2.47788 | -79.82194 | 13649 ft | 381 kts | 352° |
| 2026-04-18 11:11 | -2.45170 | -79.82529 | 13064 ft | 372 kts | 352° |
| 2026-04-18 11:11 | -2.42610 | -79.82856 | 12657 ft | 357 kts | 352° |
| 2026-04-18 11:11 | -2.40169 | -79.83168 | 12148 ft | 351 kts | 352° |
| 2026-04-18 11:12 | -2.37730 | -79.83480 | 11631 ft | 344 kts | 351° |
| 2026-04-18 11:12 | -2.35370 | -79.83781 | 11192 ft | 335 kts | 351° |
| 2026-04-18 11:12 | -2.33023 | -79.84082 | 10737 ft | 331 kts | 351° |
| 2026-04-18 11:12 | -2.30753 | -79.84373 | 10302 ft | 331 kts | 352° |
| 2026-04-18 11:13 | -2.28439 | -79.84669 | 9856 ft | 329 kts | 352° |
| 2026-04-18 11:13 | -2.26175 | -79.84959 | 9420 ft | 327 kts | 352° |
| 2026-04-18 11:13 | -2.23905 | -79.85249 | 8985 ft | 325 kts | 352° |
| 2026-04-18 11:13 | -2.21637 | -79.85539 | 8549 ft | 323 kts | 352° |
| 2026-04-18 11:14 | -2.19394 | -79.85826 | 8115 ft | 321 kts | 352° |
| 2026-04-18 11:14 | -2.17179 | -79.86110 | 7690 ft | 315 kts | 352° |
| 2026-04-18 11:14 | -2.15062 | -79.86305 | 7283 ft | 307 kts | 1° |
| 2026-04-18 11:14 | -2.13334 | -79.86033 | 6925 ft | 303 kts | 17° |
| 2026-04-18 11:15 | -2.11642 | -79.85203 | 6534 ft | 298 kts | 35° |
| 2026-04-18 11:15 | -2.10063 | -79.83739 | 6061 ft | 294 kts | 47° |
| 2026-04-18 11:15 | -2.08581 | -79.82130 | 5672 ft | 286 kts | 47° |
| 2026-04-18 11:15 | -2.07076 | -79.80508 | 5248 ft | 280 kts | 47° |
| 2026-04-18 11:16 | -2.05785 | -79.79119 | 4924 ft | 273 kts | 47° |
| 2026-04-18 11:16 | -2.04535 | -79.77777 | 4986 ft | 250 kts | 47° |
| 2026-04-18 11:16 | -2.03389 | -79.76547 | 5011 ft | 231 kts | 46° |
| 2026-04-18 11:16 | -2.02090 | -79.75738 | 5006 ft | 212 kts | 9° |
| 2026-04-18 11:17 | -2.00723 | -79.75983 | 5000 ft | 196 kts | 323° |
| 2026-04-18 11:17 | -1.99887 | -79.77069 | 4716 ft | 205 kts | 289° |
| 2026-04-18 11:17 | -1.99788 | -79.78487 | 4165 ft | 208 kts | 252° |
| 2026-04-18 11:17 | -2.00580 | -79.79597 | 3899 ft | 193 kts | 217° |
| 2026-04-18 11:18 | -2.01745 | -79.80328 | 2969 ft | 209 kts | 210° |
| 2026-04-18 11:18 | -2.02982 | -79.81033 | 2237 ft | 199 kts | 210° |
| 2026-04-18 11:18 | -2.04089 | -79.81683 | 2119 ft | 164 kts | 211° |
| 2026-04-18 11:18 | -2.05014 | -79.82225 | 2129 ft | 150 kts | 212° |
| 2026-04-18 11:19 | -2.05910 | -79.82748 | 2103 ft | 148 kts | 211° |
| 2026-04-18 11:19 | -2.06812 | -79.83247 | 2101 ft | 147 kts | 209° |
| 2026-04-18 11:19 | -2.07718 | -79.83751 | 2097 ft | 147 kts | 210° |
| 2026-04-18 11:19 | -2.08616 | -79.84265 | 2103 ft | 148 kts | 211° |
| 2026-04-18 11:20 | -2.09504 | -79.84785 | 2074 ft | 148 kts | 211° |
| 2026-04-18 11:20 | -2.10413 | -79.85314 | 1765 ft | 148 kts | 211° |
| 2026-04-18 11:20 | -2.11283 | -79.85815 | 1701 ft | 145 kts | 211° |
| 2026-04-18 11:20 | -2.12163 | -79.86318 | 1703 ft | 144 kts | 211° |
| 2026-04-18 11:21 | -2.13009 | -79.86803 | 1499 ft | 153 kts | 210° |
| 2026-04-18 11:21 | -2.13971 | -79.87312 | 1465 ft | 159 kts | 210° |
| 2026-04-18 11:21 | -2.14978 | -79.87887 | 1423 ft | 168 kts | 211° |
| 2026-04-18 11:21 | -2.16079 | -79.88516 | 1266 ft | 191 kts | 208° |
| 2026-04-18 11:22 | -2.17319 | -79.89181 | 1654 ft | 221 kts | 214° |
| 2026-04-18 11:22 | -2.18596 | -79.89911 | 2839 ft | 227 kts | 203° |
| 2026-04-18 11:22 | -2.20006 | -79.90509 | 2822 ft | 229 kts | 210° |
| 2026-04-18 11:22 | -2.21346 | -79.91412 | 2387 ft | 236 kts | 212° |
| 2026-04-18 11:23 | -2.22853 | -79.92312 | 2158 ft | 256 kts | 212° |
| 2026-04-18 11:23 | -2.24447 | -79.93277 | 2324 ft | 284 kts | 211° |
| 2026-04-18 11:23 | -2.26137 | -79.94280 | 2864 ft | 274 kts | 211° |
| 2026-04-18 11:23 | -2.27771 | -79.95240 | 3001 ft | 264 kts | 211° |
| 2026-04-18 11:24 | -2.29366 | -79.96170 | 3014 ft | 260 kts | 210° |
| 2026-04-18 11:24 | -2.30937 | -79.97091 | 3011 ft | 258 kts | 212° |
| 2026-04-18 11:24 | -2.32218 | -79.98330 | 3015 ft | 257 kts | 242° |
| 2026-04-18 11:24 | -2.32635 | -80.00035 | 3016 ft | 258 kts | 274° |
| 2026-04-18 11:25 | -2.32022 | -80.01758 | 3030 ft | 261 kts | 307° |
| 2026-04-18 11:25 | -2.30594 | -80.02855 | 3011 ft | 262 kts | 340° |
| 2026-04-18 11:25 | -2.28771 | -80.03100 | 2995 ft | 263 kts | 1° |
| 2026-04-18 11:25 | -2.26914 | -80.03044 | 2994 ft | 263 kts | 3° |
| 2026-04-18 11:26 | -2.25107 | -80.02607 | 3000 ft | 264 kts | 26° |
| 2026-04-18 11:26 | -2.23472 | -80.01727 | 2995 ft | 265 kts | 29° |
| 2026-04-18 11:26 | -2.21826 | -80.00794 | 2998 ft | 267 kts | 30° |
| 2026-04-18 11:26 | -2.20214 | -79.99876 | 2999 ft | 268 kts | 30° |
| 2026-04-18 11:27 | -2.18579 | -79.98946 | 2998 ft | 268 kts | 30° |
| 2026-04-18 11:27 | -2.16944 | -79.98013 | 3000 ft | 269 kts | 30° |
| 2026-04-18 11:27 | -2.15306 | -79.97069 | 2998 ft | 268 kts | 32° |
| 2026-04-18 11:27 | -2.14003 | -79.95747 | 3004 ft | 268 kts | 62° |
| 2026-04-18 11:28 | -2.13348 | -79.94016 | 2993 ft | 267 kts | 73° |
| 2026-04-18 11:28 | -2.12828 | -79.92264 | 2944 ft | 253 kts | 73° |
| 2026-04-18 11:28 | -2.12352 | -79.90610 | 2652 ft | 247 kts | 74° |
| 2026-04-18 11:28 | -2.11885 | -79.88985 | 2319 ft | 244 kts | 74° |
| 2026-04-18 11:29 | -2.11429 | -79.87378 | 2127 ft | 234 kts | 73° |
| 2026-04-18 11:29 | -2.10948 | -79.85863 | 2070 ft | 225 kts | 68° |
| 2026-04-18 11:29 | -2.10630 | -79.84345 | 2085 ft | 214 kts | 95° |
| 2026-04-18 11:29 | -2.11196 | -79.83085 | 2114 ft | 189 kts | 129° |
| 2026-04-18 11:30 | -2.11920 | -79.82030 | 2111 ft | 183 kts | 107° |
| 2026-04-18 11:30 | -2.11839 | -79.80821 | 2074 ft | 175 kts | 61° |
| 2026-04-18 11:30 | -2.10937 | -79.80042 | 2106 ft | 169 kts | 27° |
| 2026-04-18 11:30 | -2.09880 | -79.79522 | 2119 ft | 169 kts | 25° |
| 2026-04-18 11:31 | -2.08800 | -79.79015 | 2105 ft | 168 kts | 24° |
| 2026-04-18 11:31 | -2.07730 | -79.78519 | 2104 ft | 168 kts | 24° |
| 2026-04-18 11:31 | -2.06646 | -79.78055 | 2086 ft | 169 kts | 22° |
| 2026-04-18 11:31 | -2.05554 | -79.77597 | 1992 ft | 166 kts | 20° |
| 2026-04-18 11:32 | -2.04459 | -79.77193 | 2001 ft | 167 kts | 19° |
| 2026-04-18 11:32 | -2.03349 | -79.76791 | 2001 ft | 167 kts | 19° |
| 2026-04-18 11:32 | -2.02207 | -79.76563 | 1985 ft | 164 kts | 351° |
| 2026-04-18 11:32 | -2.01288 | -79.77141 | 2002 ft | 154 kts | 309° |
| 2026-04-18 11:33 | -2.01052 | -79.78168 | 1987 ft | 158 kts | 258° |
| 2026-04-18 11:33 | -2.01699 | -79.79068 | 2005 ft | 158 kts | 224° |
| 2026-04-18 11:33 | -2.02441 | -79.79874 | 1989 ft | 158 kts | 230° |
| 2026-04-18 11:33 | -2.03186 | -79.80708 | 1998 ft | 154 kts | 229° |
| 2026-04-18 11:34 | -2.03970 | -79.81396 | 2002 ft | 148 kts | 214° |
| 2026-04-18 11:34 | -2.04853 | -79.81916 | 2006 ft | 144 kts | 210° |
| 2026-04-18 11:34 | -2.05726 | -79.82432 | 2002 ft | 142 kts | 214° |
| 2026-04-18 11:34 | -2.06552 | -79.82973 | 1999 ft | 141 kts | 215° |
| 2026-04-18 11:35 | -2.07392 | -79.83523 | 1999 ft | 141 kts | 214° |
| 2026-04-18 11:35 | -2.08236 | -79.84056 | 1932 ft | 143 kts | 212° |
| 2026-04-18 11:35 | -2.09110 | -79.84575 | 1668 ft | 145 kts | 211° |
| 2026-04-18 11:35 | -2.09973 | -79.85069 | 1185 ft | 146 kts | 210° |
| 2026-04-18 11:36 | -2.10853 | -79.85565 | 688 ft | 139 kts | 209° |
| 2026-04-18 11:36 | -2.11691 | -79.85979 | 511 ft | 139 kts | 211° |
| 2026-04-18 11:36 | -2.12534 | -79.86506 | 482 ft | 139 kts | 213° |
| 2026-04-18 11:36 | -2.13346 | -79.86993 | 352 ft | 134 kts | 211° |
| 2026-04-18 11:37 | -2.14168 | -79.87460 | 208 ft | 133 kts | 209° |
| 2026-04-18 11:37 | -2.14963 | -79.87917 | 60 ft | 131 kts | 210° |
| 2026-04-18 11:37 | -2.15680 | -79.88331 | 31 ft | 111 kts | 211° |
| 2026-04-18 11:37 | -2.16135 | -79.88593 | 27 ft | 44 kts | 211° |
| 2026-04-18 11:38 | -2.16302 | -79.88688 | 26 ft | 9 kts | 210° |
| 2026-04-18 11:38 | -2.16373 | -79.88729 | 26 ft | 14 kts | 211° |
| 2026-04-18 11:38 | -2.16468 | -79.88787 | 26 ft | 17 kts | 211° |
| 2026-04-18 11:38 | -2.16588 | -79.88852 | 26 ft | 20 kts | 209° |
| 2026-04-18 11:39 | -2.16707 | -79.88921 | 26 ft | 8 kts | 222° |
| 2026-04-18 11:39 | -2.16715 | -79.88992 | 26 ft | 12 kts | 310° |
| 2026-04-18 11:39 | -2.16635 | -79.88989 | 26 ft | 13 kts | 24° |
| 2026-04-18 11:39 | -2.16595 | -79.88975 | 26 ft | 2 kts | 297° |
| 2026-04-18 11:40 | -2.16581 | -79.89005 | 26 ft | 6 kts | 296° |
| 2026-04-18 11:40 | -2.16577 | -79.89044 | 26 ft | 6 kts | 271° |
| 2026-04-18 11:40 | -2.16558 | -79.89084 | 26 ft | 6 kts | 359° |
| 2026-04-18 11:40 | -2.16542 | -79.89076 | 26 ft | 0 kts | 34° |